Time;durP1;ratioP1;P1;durP2;ratioP2;P2;SDS_P1;SDS_P2;PMS_P1;PMS_P2;Temp;Humidity;BMP_temperature;BMP_pressure;BME280_temperature;BME280_humidity;BME280_pressure;Samples;Min_cycle;Max_cycle;Signal;HPM_P1;HPM_P2
2023/08/24 00:02:19;;;;;;;;;;;26.10;62.60;;;;;;5064663;28;20365;-81
2023/08/24 00:04:45;;;;;;;;;;;26.00;62.60;;;;;;5061998;28;19987;-81
2023/08/24 00:07:12;;;;;;;;;;;26.00;62.60;;;;;;5063102;28;19982;-80
2023/08/24 00:09:38;;;;;;;;;;;26.00;62.60;;;;;;5065036;28;20007;-81
2023/08/24 00:12:06;;;;;;;;;;;25.90;62.70;;;;;;5069205;28;19982;-81
2023/08/24 00:14:33;;;;;;;;;;;25.90;62.70;;;;;;5065955;28;20021;-81
2023/08/24 00:16:59;;;;;;;;;;;25.90;62.80;;;;;;5070207;28;20507;-81
2023/08/24 00:19:27;;;;;;;;;;;25.90;63.00;;;;;;5069472;28;20559;-82
2023/08/24 00:21:54;;;;;;;;;;;25.80;63.00;;;;;;5067132;28;20428;-81
2023/08/24 00:24:20;;;;;;;;;;;25.80;63.00;;;;;;5063074;28;20004;-80
2023/08/24 00:26:47;;;;;;;;;;;25.80;63.00;;;;;;5063701;28;19999;-81
2023/08/24 00:29:13;;;;;;;;;;;25.80;63.30;;;;;;5068157;28;19984;-82
2023/08/24 00:31:40;;;;;;;;;;;25.70;63.50;;;;;;5064843;28;20002;-81
2023/08/24 00:34:06;;;;;;;;;;;25.70;63.50;;;;;;5064881;28;20015;-82
2023/08/24 00:36:34;;;;;;;;;;;25.60;63.50;;;;;;5062673;28;19991;-81
2023/08/24 00:39:01;;;;;;;;;;;25.60;63.70;;;;;;5063384;28;20094;-81
2023/08/24 00:41:27;;;;;;;;;;;25.60;63.80;;;;;;5063275;28;19982;-81
2023/08/24 00:43:54;;;;;;;;;;;25.50;63.80;;;;;;5065723;28;20003;-81
2023/08/24 00:46:22;;;;;;;;;;;25.50;63.90;;;;;;5060654;28;20025;-81
2023/08/24 00:48:49;;;;;;;;;;;25.50;63.90;;;;;;5062414;28;20758;-81
2023/08/24 00:51:15;;;;;;;;;;;25.40;63.90;;;;;;5060013;28;19975;-81
2023/08/24 00:53:43;;;;;;;;;;;25.40;64.10;;;;;;5058498;28;19979;-81
2023/08/24 00:56:10;;;;;;;;;;;25.40;64.10;;;;;;5059886;28;19995;-80
2023/08/24 00:58:38;;;;;;;;;;;25.30;64.00;;;;;;5060166;28;19972;-81
2023/08/24 01:01:04;;;;;;;;;;;25.30;64.20;;;;;;5058751;28;19995;-81
2023/08/24 01:03:32;;;;;;;;;;;25.30;64.30;;;;;;5061008;28;19995;-81
2023/08/24 01:05:58;;;;;;;;;;;25.30;64.40;;;;;;5062266;28;20023;-81
2023/08/24 01:08:25;;;;;;;;;;;25.30;64.40;;;;;;5063146;28;19975;-81
2023/08/24 01:10:57;;;;;;;;;;;25.20;64.30;;;;;;5060440;28;19990;-81
2023/08/24 01:13:28;;;;;;;;;;;25.20;64.40;;;;;;5063386;28;19987;-81
2023/08/24 01:15:59;;;;;;;;;;;25.10;64.40;;;;;;5063689;28;19997;-81
2023/08/24 01:18:27;;;;;;;;;;;25.10;64.40;;;;;;5062814;28;19982;-82
2023/08/24 01:20:54;;;;;;;;;;;25.10;64.40;;;;;;5065338;28;20011;-81
2023/08/24 01:23:33;;;;;;;;;;;25.10;64.50;;;;;;5060373;28;20030;-83
2023/08/24 01:26:04;;;;;;;;;;;25.10;64.60;;;;;;5065855;28;20049;-82
2023/08/24 01:28:31;;;;;;;;;;;25.00;64.60;;;;;;5064844;28;20015;-82
2023/08/24 01:30:58;;;;;;;;;;;25.00;64.50;;;;;;5068094;28;20078;-81
2023/08/24 01:33:25;;;;;;;;;;;25.00;64.60;;;;;;5067486;28;19976;-81
2023/08/24 01:35:51;;;;;;;;;;;24.90;64.60;;;;;;5061157;28;19988;-80
2023/08/24 01:38:18;;;;;;;;;;;24.90;64.60;;;;;;5058661;28;21571;-81
2023/08/24 01:40:49;;;;;;;;;;;24.90;64.60;;;;;;5062507;28;19983;-81
2023/08/24 01:43:19;;;;;;;;;;;24.90;64.70;;;;;;5063543;28;20661;-81
2023/08/24 01:45:46;;;;;;;;;;;24.90;64.80;;;;;;5057753;28;20006;-81
2023/08/24 01:48:13;;;;;;;;;;;24.80;64.80;;;;;;5063638;28;19983;-81
2023/08/24 01:50:40;;;;;;;;;;;24.80;64.90;;;;;;5061920;28;20013;-81
2023/08/24 01:53:06;;;;;;;;;;;24.80;64.90;;;;;;5061722;28;19983;-82
2023/08/24 01:55:33;;;;;;;;;;;24.80;65.00;;;;;;5061888;28;19987;-81
2023/08/24 01:57:59;;;;;;;;;;;24.70;65.00;;;;;;5058447;28;19972;-81
2023/08/24 02:00:28;;;;;;;;;;;24.70;65.10;;;;;;5061938;28;19999;-81
2023/08/24 02:02:54;;;;;;;;;;;24.70;65.10;;;;;;5062901;28;19975;-81
2023/08/24 02:05:21;;;;;;;;;;;24.60;65.20;;;;;;5061820;28;19999;-81
2023/08/24 02:07:48;;;;;;;;;;;24.60;65.30;;;;;;5060687;28;20210;-80
2023/08/24 02:10:14;;;;;;;;;;;24.60;65.30;;;;;;5063377;28;19982;-82
2023/08/24 02:12:41;;;;;;;;;;;24.60;65.40;;;;;;5063243;28;19986;-81
2023/08/24 02:15:08;;;;;;;;;;;24.50;65.40;;;;;;5060164;28;19998;-81
2023/08/24 02:17:36;;;;;;;;;;;24.50;65.50;;;;;;5062008;28;19976;-81
2023/08/24 02:20:03;;;;;;;;;;;24.40;65.40;;;;;;5062971;28;19975;-81
2023/08/24 02:22:30;;;;;;;;;;;24.40;65.60;;;;;;5063318;28;19984;-81
2023/08/24 02:24:56;;;;;;;;;;;24.40;65.60;;;;;;5062473;28;19995;-80
2023/08/24 02:27:23;;;;;;;;;;;24.40;65.70;;;;;;5062868;28;20579;-81
2023/08/24 02:29:50;;;;;;;;;;;24.30;65.80;;;;;;5063146;28;20095;-81
2023/08/24 02:32:16;;;;;;;;;;;24.40;66.00;;;;;;5062954;28;19991;-80
2023/08/24 02:34:44;;;;;;;;;;;24.30;66.00;;;;;;5061686;28;19983;-81
2023/08/24 02:37:11;;;;;;;;;;;24.30;66.10;;;;;;5063774;28;20078;-81
2023/08/24 02:39:37;;;;;;;;;;;24.30;66.20;;;;;;5060457;28;19980;-82
2023/08/24 02:42:04;;;;;;;;;;;24.30;66.30;;;;;;5060307;28;19986;-82
2023/08/24 02:44:31;;;;;;;;;;;24.30;66.30;;;;;;5060381;28;20045;-80
2023/08/24 02:46:57;;;;;;;;;;;24.20;66.30;;;;;;5057280;28;19995;-82
2023/08/24 02:49:24;;;;;;;;;;;24.20;66.50;;;;;;5059242;28;19976;-81
2023/08/24 02:51:52;;;;;;;;;;;24.20;66.50;;;;;;5061069;28;20033;-80
2023/08/24 02:54:18;;;;;;;;;;;24.20;66.60;;;;;;5061496;28;19987;-81
2023/08/24 02:56:45;;;;;;;;;;;24.20;66.70;;;;;;5063930;28;20038;-81
2023/08/24 02:59:12;;;;;;;;;;;24.10;66.70;;;;;;5063620;28;20633;-81
2023/08/24 03:01:40;;;;;;;;;;;24.10;66.80;;;;;;5064188;28;20506;-81
2023/08/24 03:04:07;;;;;;;;;;;24.00;66.80;;;;;;5059238;28;19995;-81
2023/08/24 03:06:34;;;;;;;;;;;24.00;66.90;;;;;;5065939;28;20045;-80
2023/08/24 03:09:03;;;;;;;;;;;24.00;67.00;;;;;;5066984;28;20020;-81
2023/08/24 03:11:30;;;;;;;;;;;24.00;67.10;;;;;;5069078;28;19979;-81
2023/08/24 03:13:57;;;;;;;;;;;24.00;67.20;;;;;;5065369;28;20333;-82
2023/08/24 03:16:23;;;;;;;;;;;23.90;67.20;;;;;;5062949;28;19999;-81
2023/08/24 03:18:50;;;;;;;;;;;23.90;67.20;;;;;;5065812;28;20014;-81
2023/08/24 03:21:16;;;;;;;;;;;23.90;67.30;;;;;;5061608;28;19975;-80
2023/08/24 03:23:43;;;;;;;;;;;23.80;67.40;;;;;;5060960;28;19995;-81
2023/08/24 03:26:11;;;;;;;;;;;23.80;67.40;;;;;;5062960;28;20551;-80
2023/08/24 03:28:37;;;;;;;;;;;23.80;67.50;;;;;;5064820;28;19976;-80
2023/08/24 03:31:04;;;;;;;;;;;23.80;67.60;;;;;;5061878;28;20074;-80
2023/08/24 03:33:30;;;;;;;;;;;23.80;67.70;;;;;;5059983;28;19980;-80
2023/08/24 03:35:57;;;;;;;;;;;23.70;67.70;;;;;;5062978;28;20053;-80
2023/08/24 03:38:23;;;;;;;;;;;23.70;67.80;;;;;;5063138;28;19975;-81
2023/08/24 03:40:50;;;;;;;;;;;23.70;67.90;;;;;;5064708;28;19980;-81
2023/08/24 03:43:18;;;;;;;;;;;23.70;68.00;;;;;;5060350;28;20658;-80
2023/08/24 03:45:44;;;;;;;;;;;23.60;67.90;;;;;;5062580;28;20006;-80
2023/08/24 03:48:11;;;;;;;;;;;23.60;68.00;;;;;;5064048;28;19980;-81
2023/08/24 03:50:37;;;;;;;;;;;23.60;68.00;;;;;;5065653;28;19979;-81
2023/08/24 03:53:04;;;;;;;;;;;23.60;68.20;;;;;;5065425;28;19976;-80
2023/08/24 03:55:32;;;;;;;;;;;23.50;68.20;;;;;;5067264;28;19991;-81
2023/08/24 03:57:59;;;;;;;;;;;23.50;68.30;;;;;;5063031;28;19994;-81
2023/08/24 04:00:27;;;;;;;;;;;23.50;68.40;;;;;;5071383;28;20543;-81
2023/08/24 04:02:53;;;;;;;;;;;23.50;68.50;;;;;;5066405;28;19987;-81
2023/08/24 04:05:20;;;;;;;;;;;23.50;68.50;;;;;;5062170;28;20381;-81
2023/08/24 04:07:47;;;;;;;;;;;23.50;68.50;;;;;;5061079;28;20743;-80
2023/08/24 04:10:13;;;;;;;;;;;23.40;68.60;;;;;;5064973;28;20490;-80
2023/08/24 04:12:40;;;;;;;;;;;23.40;68.60;;;;;;5062674;28;19983;-80
2023/08/24 04:15:07;;;;;;;;;;;23.40;68.70;;;;;;5065834;28;19998;-82
2023/08/24 04:17:35;;;;;;;;;;;23.40;68.70;;;;;;5070563;28;19975;-80
2023/08/24 04:20:01;;;;;;;;;;;23.40;68.80;;;;;;5064202;28;19980;-80
2023/08/24 04:22:28;;;;;;;;;;;23.30;68.80;;;;;;5067332;28;19983;-81
2023/08/24 04:24:54;;;;;;;;;;;23.40;68.90;;;;;;5069574;28;19998;-81
2023/08/24 04:27:21;;;;;;;;;;;23.30;68.90;;;;;;5064600;28;19975;-80
2023/08/24 04:29:48;;;;;;;;;;;23.30;69.00;;;;;;5067127;28;20034;-81
2023/08/24 04:32:15;;;;;;;;;;;23.30;69.00;;;;;;5065322;28;20022;-81
2023/08/24 04:34:43;;;;;;;;;;;23.30;69.10;;;;;;5065965;28;20029;-81
2023/08/24 04:37:09;;;;;;;;;;;23.30;69.10;;;;;;5063452;28;19999;-80
2023/08/24 04:39:36;;;;;;;;;;;23.30;69.20;;;;;;5068588;28;19976;-81
2023/08/24 04:42:03;;;;;;;;;;;23.30;69.20;;;;;;5070491;28;19975;-80
2023/08/24 04:44:29;;;;;;;;;;;23.20;69.20;;;;;;5067149;28;20042;-80
2023/08/24 04:46:56;;;;;;;;;;;23.20;69.30;;;;;;5064918;28;20006;-80
2023/08/24 04:49:22;;;;;;;;;;;23.20;70.10;;;;;;5064419;28;19976;-80
2023/08/24 04:51:50;;;;;;;;;;;23.20;69.40;;;;;;5064267;28;19979;-81
2023/08/24 04:54:17;;;;;;;;;;;23.20;69.50;;;;;;5069196;28;19981;-81
2023/08/24 04:56:44;;;;;;;;;;;23.20;69.50;;;;;;5062192;28;20022;-80
2023/08/24 04:59:10;;;;;;;;;;;23.10;69.60;;;;;;5067185;28;19987;-81
2023/08/24 05:01:37;;;;;;;;;;;23.10;69.60;;;;;;5063583;28;20013;-80
2023/08/24 05:04:03;;;;;;;;;;;23.10;69.70;;;;;;5063972;28;20360;-80
2023/08/24 05:06:30;;;;;;;;;;;23.10;69.80;;;;;;5061686;28;19992;-81
2023/08/24 05:08:58;;;;;;;;;;;23.10;69.80;;;;;;5067187;28;20058;-80
2023/08/24 05:11:26;;;;;;;;;;;23.10;69.80;;;;;;5062508;28;19979;-81
2023/08/24 05:13:52;;;;;;;;;;;23.10;69.90;;;;;;5063534;28;20061;-81
2023/08/24 05:16:19;;;;;;;;;;;23.10;69.90;;;;;;5061959;28;20003;-80
2023/08/24 05:18:46;;;;;;;;;;;23.00;69.90;;;;;;5063435;28;19986;-79
2023/08/24 05:21:12;;;;;;;;;;;23.00;70.00;;;;;;5060871;28;19980;-80
2023/08/24 05:23:39;;;;;;;;;;;23.00;70.00;;;;;;5061653;28;20141;-80
2023/08/24 05:26:06;;;;;;;;;;;23.00;70.00;;;;;;5061701;28;20003;-79
2023/08/24 05:28:33;;;;;;;;;;;23.00;70.00;;;;;;5064784;28;19987;-81
2023/08/24 05:31:00;;;;;;;;;;;23.00;70.10;;;;;;5059364;28;20002;-80
2023/08/24 05:33:27;;;;;;;;;;;23.00;70.10;;;;;;5061650;28;19990;-80
2023/08/24 05:35:53;;;;;;;;;;;23.00;70.20;;;;;;5057978;28;19999;-79
2023/08/24 05:38:20;;;;;;;;;;;22.90;70.10;;;;;;5058993;28;19975;-80
2023/08/24 05:40:48;;;;;;;;;;;23.00;70.20;;;;;;5064012;28;20611;-81
2023/08/24 05:43:16;;;;;;;;;;;22.90;70.10;;;;;;5057996;28;19987;-79
2023/08/24 05:45:44;;;;;;;;;;;23.00;70.20;;;;;;5062456;28;20423;-78
2023/08/24 05:48:11;;;;;;;;;;;23.00;70.20;;;;;;5059790;28;20437;-75
2023/08/24 05:50:38;;;;;;;;;;;23.00;70.20;;;;;;5058696;28;19972;-76
2023/08/24 05:53:04;;;;;;;;;;;22.90;70.10;;;;;;5064324;28;20078;-75
2023/08/24 05:55:31;;;;;;;;;;;23.00;70.30;;;;;;5059089;28;19995;-75
2023/08/24 05:57:58;;;;;;;;;;;22.90;70.20;;;;;;5060682;28;19991;-74
2023/08/24 06:00:25;;;;;;;;;;;22.90;70.20;;;;;;5060641;28;19982;-75
2023/08/24 06:02:52;;;;;;;;;;;23.00;70.20;;;;;;5055851;28;19984;-75
2023/08/24 06:05:19;;;;;;;;;;;22.90;70.20;;;;;;5060620;28;19995;-75
2023/08/24 06:07:46;;;;;;;;;;;22.90;70.20;;;;;;5054090;28;20013;-75
2023/08/24 06:10:13;;;;;;;;;;;22.90;70.20;;;;;;5061504;28;20454;-76
2023/08/24 06:12:39;;;;;;;;;;;22.90;70.20;;;;;;5055911;28;20070;-76
2023/08/24 06:15:09;;;;;;;;;;;22.90;70.10;;;;;;5059378;28;19987;-76
2023/08/24 06:17:37;;;;;;;;;;;22.90;70.10;;;;;;5060739;28;19975;-75
2023/08/24 06:20:04;;;;;;;;;;;22.90;70.10;;;;;;5058302;28;19986;-76
2023/08/24 06:22:31;;;;;;;;;;;22.90;70.10;;;;;;5052606;28;20027;-79
2023/08/24 06:24:59;;;;;;;;;;;22.90;70.00;;;;;;5059628;28;19991;-76
2023/08/24 06:27:26;;;;;;;;;;;22.90;70.00;;;;;;5053997;28;19984;-77
2023/08/24 06:29:52;;;;;;;;;;;22.90;69.90;;;;;;5058531;28;19982;-77
2023/08/24 06:32:19;;;;;;;;;;;22.90;69.80;;;;;;5059018;28;19991;-77
2023/08/24 06:34:47;;;;;;;;;;;22.90;69.70;;;;;;5056699;28;19984;-77
2023/08/24 06:37:13;;;;;;;;;;;22.90;69.70;;;;;;5057971;28;19979;-77
2023/08/24 06:39:40;;;;;;;;;;;22.80;69.40;;;;;;5059977;28;19980;-79
2023/08/24 06:42:06;;;;;;;;;;;22.90;69.30;;;;;;5056435;28;19982;-77
2023/08/24 06:44:33;;;;;;;;;;;22.90;69.20;;;;;;5057444;28;19979;-77
2023/08/24 06:47:00;;;;;;;;;;;22.90;69.00;;;;;;5056973;28;20049;-77
2023/08/24 06:49:27;;;;;;;;;;;22.80;68.90;;;;;;5056220;28;20025;-78
2023/08/24 06:51:55;;;;;;;;;;;22.90;68.80;;;;;;5052018;28;19980;-77
2023/08/24 06:54:22;;;;;;;;;;;22.90;68.80;;;;;;5059068;28;19986;-77
2023/08/24 06:56:49;;;;;;;;;;;22.90;68.70;;;;;;5059007;28;20480;-78
2023/08/24 06:59:15;;;;;;;;;;;22.90;68.60;;;;;;5060150;28;19976;-80
2023/08/24 07:01:42;;;;;;;;;;;22.90;68.60;;;;;;5055250;28;19999;-79
2023/08/24 07:04:09;;;;;;;;;;;22.90;68.60;;;;;;5057041;28;20065;-80
2023/08/24 07:06:35;;;;;;;;;;;22.90;68.50;;;;;;5059804;28;19995;-78
2023/08/24 07:09:06;;;;;;;;;;;22.90;68.60;;;;;;5058224;28;19979;-77
2023/08/24 07:11:32;;;;;;;;;;;22.90;68.60;;;;;;5058327;28;19983;-78
2023/08/24 07:13:59;;;;;;;;;;;22.90;68.60;;;;;;5057277;28;19983;-79
2023/08/24 07:16:26;;;;;;;;;;;22.90;68.70;;;;;;5058800;28;20003;-80
2023/08/24 07:18:52;;;;;;;;;;;22.90;68.70;;;;;;5056120;28;19976;-78
2023/08/24 07:21:19;;;;;;;;;;;22.90;68.70;;;;;;5056224;28;19976;-79
2023/08/24 07:23:45;;;;;;;;;;;22.90;68.80;;;;;;5060141;28;19986;-78
2023/08/24 07:26:13;;;;;;;;;;;22.90;68.80;;;;;;5056879;28;20003;-80
2023/08/24 07:28:40;;;;;;;;;;;22.90;68.90;;;;;;5058763;28;19986;-78
2023/08/24 07:31:10;;;;;;;;;;;22.90;68.90;;;;;;5057425;28;19991;-80
2023/08/24 07:33:37;;;;;;;;;;;22.90;68.90;;;;;;5058705;28;20030;-79
2023/08/24 07:36:04;;;;;;;;;;;22.90;68.80;;;;;;5060089;28;19995;-77
2023/08/24 07:38:30;;;;;;;;;;;23.00;68.80;;;;;;5061786;28;19986;-81
2023/08/24 07:40:57;;;;;;;;;;;23.00;68.70;;;;;;5061692;28;19975;-77
2023/08/24 07:43:25;;;;;;;;;;;23.00;68.70;;;;;;5056575;28;19976;-80
2023/08/24 07:45:52;;;;;;;;;;;23.00;68.50;;;;;;5053990;28;19999;-79
2023/08/24 07:48:18;;;;;;;;;;;23.00;68.40;;;;;;5057347;28;19979;-81
2023/08/24 07:50:45;;;;;;;;;;;23.00;68.30;;;;;;5055707;28;19980;-83
2023/08/24 07:53:24;;;;;;;;;;;23.10;68.30;;;;;;5053064;28;19987;-84
2023/08/24 07:55:51;;;;;;;;;;;23.10;68.10;;;;;;5060276;28;19990;-80
2023/08/24 07:58:17;;;;;;;;;;;23.10;68.00;;;;;;5059421;28;19971;-80
2023/08/24 08:00:46;;;;;;;;;;;23.10;67.90;;;;;;5057232;28;20082;-75
2023/08/24 08:03:12;;;;;;;;;;;23.10;68.70;;;;;;5059801;28;19976;-73
2023/08/24 08:05:39;;;;;;;;;;;23.10;67.80;;;;;;5053521;28;19999;-74
2023/08/24 08:08:05;;;;;;;;;;;23.20;67.80;;;;;;5061102;28;19979;-76
2023/08/24 08:10:32;;;;;;;;;;;23.20;67.80;;;;;;5058375;28;19979;-74
2023/08/24 08:12:58;;;;;;;;;;;23.20;67.70;;;;;;5056295;28;19984;-75
2023/08/24 08:15:25;;;;;;;;;;;23.20;67.60;;;;;;5058186;28;19996;-75
2023/08/24 08:17:53;;;;;;;;;;;23.30;67.60;;;;;;5058747;28;19980;-75
2023/08/24 08:20:20;;;;;;;;;;;23.30;67.60;;;;;;5057157;28;20105;-75
2023/08/24 08:22:46;;;;;;;;;;;23.30;67.60;;;;;;5055605;28;20692;-75
2023/08/24 08:25:13;;;;;;;;;;;23.30;67.50;;;;;;5058423;28;19992;-74
2023/08/24 08:27:39;;;;;;;;;;;23.30;67.40;;;;;;5057065;28;19990;-74
2023/08/24 08:30:07;;;;;;;;;;;23.30;67.30;;;;;;5059824;28;20022;-74
2023/08/24 08:32:34;;;;;;;;;;;23.40;67.40;;;;;;5061605;28;19987;-75
2023/08/24 08:35:04;;;;;;;;;;;23.40;67.30;;;;;;5063194;28;19976;-75
2023/08/24 08:37:31;;;;;;;;;;;23.40;67.20;;;;;;5063111;28;20440;-74
2023/08/24 08:39:58;;;;;;;;;;;23.40;67.20;;;;;;5061745;28;20334;-74
2023/08/24 08:42:24;;;;;;;;;;;23.50;67.20;;;;;;5064183;28;19982;-75
2023/08/24 08:44:53;;;;;;;;;;;23.50;67.10;;;;;;5064111;28;20475;-75
2023/08/24 08:47:21;;;;;;;;;;;23.50;67.10;;;;;;5060687;28;19999;-75
2023/08/24 08:49:48;;;;;;;;;;;23.60;67.10;;;;;;5065152;28;20029;-76
2023/08/24 08:52:16;;;;;;;;;;;23.60;67.00;;;;;;5064418;28;19975;-74
2023/08/24 08:54:43;;;;;;;;;;;23.70;66.90;;;;;;5058849;28;19975;-75
2023/08/24 08:57:10;;;;;;;;;;;23.70;67.00;;;;;;5061506;28;19991;-74
2023/08/24 08:59:37;;;;;;;;;;;23.80;67.10;;;;;;5065972;28;19976;-74
2023/08/24 09:02:04;;;;;;;;;;;23.80;67.00;;;;;;5060265;28;20003;-75
2023/08/24 09:04:32;;;;;;;;;;;23.90;66.90;;;;;;5061327;28;19987;-75
2023/08/24 09:07:00;;;;;;;;;;;23.90;66.70;;;;;;5057188;28;19999;-75
2023/08/24 09:09:28;;;;;;;;;;;24.00;66.80;;;;;;5064216;28;20019;-74
2023/08/24 09:11:55;;;;;;;;;;;24.10;66.70;;;;;;5064346;28;19986;-75
2023/08/24 09:14:21;;;;;;;;;;;24.10;66.60;;;;;;5064770;28;20201;-75
2023/08/24 09:16:48;;;;;;;;;;;24.20;66.50;;;;;;5059777;28;19996;-75
2023/08/24 09:19:15;;;;;;;;;;;24.30;66.50;;;;;;5058346;28;19984;-74
2023/08/24 09:21:42;;;;;;;;;;;24.30;66.40;;;;;;5062389;28;19986;-75
2023/08/24 09:24:09;;;;;;;;;;;24.30;66.30;;;;;;5058417;28;20067;-74
2023/08/24 09:26:42;;;;;;;;;;;24.40;66.40;;;;;;5062917;28;19996;-74
2023/08/24 09:29:12;;;;;;;;;;;24.50;66.30;;;;;;5061934;28;19991;-74
2023/08/24 09:31:39;;;;;;;;;;;24.50;66.20;;;;;;5060511;28;20022;-74
2023/08/24 09:34:06;;;;;;;;;;;24.60;66.10;;;;;;5064284;28;19983;-75
2023/08/24 09:36:33;;;;;;;;;;;24.70;66.00;;;;;;5059666;28;20039;-73
2023/08/24 09:39:00;;;;;;;;;;;24.70;65.90;;;;;;5058448;28;19982;-74
2023/08/24 09:41:39;;;;;;;;;;;24.80;65.80;;;;;;5061103;28;19980;-74
2023/08/24 09:44:05;;;;;;;;;;;24.90;65.60;;;;;;5057636;28;20086;-74
2023/08/24 09:46:32;;;;;;;;;;;24.90;65.50;;;;;;5062593;28;20003;-74
2023/08/24 09:49:00;;;;;;;;;;;25.00;65.40;;;;;;5062804;28;20062;-74
2023/08/24 09:51:27;;;;;;;;;;;25.10;65.20;;;;;;5059637;28;19979;-74
2023/08/24 09:53:56;;;;;;;;;;;25.10;65.20;;;;;;5060597;28;19987;-74
2023/08/24 09:56:24;;;;;;;;;;;25.20;65.30;;;;;;5061150;28;19995;-74
2023/08/24 09:58:53;;;;;;;;;;;25.30;64.90;;;;;;5065236;28;20073;-74
2023/08/24 10:01:20;;;;;;;;;;;25.40;64.80;;;;;;5060992;28;19995;-74
2023/08/24 10:03:47;;;;;;;;;;;25.40;64.70;;;;;;5052543;28;19980;-73
2023/08/24 10:06:14;;;;;;;;;;;25.50;64.60;;;;;;5063087;28;19999;-74
2023/08/24 10:08:44;;;;;;;;;;;25.50;64.60;;;;;;5063039;28;20067;-74
2023/08/24 10:11:11;;;;;;;;;;;25.60;64.40;;;;;;5062488;28;19976;-74
2023/08/24 10:13:41;;;;;;;;;;;25.60;63.90;;;;;;5063035;28;19975;-74
2023/08/24 10:16:09;;;;;;;;;;;25.70;63.80;;;;;;5064221;28;20090;-74
2023/08/24 10:18:37;;;;;;;;;;;25.80;63.70;;;;;;5060017;28;20007;-75
2023/08/24 10:21:04;;;;;;;;;;;25.80;63.50;;;;;;5064641;28;19982;-74
2023/08/24 10:23:31;;;;;;;;;;;25.90;63.40;;;;;;5052862;28;20464;-75
2023/08/24 10:25:58;;;;;;;;;;;26.00;63.40;;;;;;5057240;28;20524;-75
2023/08/24 10:28:25;;;;;;;;;;;26.00;63.30;;;;;;5061314;28;19975;-74
2023/08/24 10:30:52;;;;;;;;;;;26.10;63.20;;;;;;5062023;28;20070;-75
2023/08/24 10:33:21;;;;;;;;;;;26.10;63.00;;;;;;5057146;28;20089;-75
2023/08/24 10:35:48;;;;;;;;;;;26.20;62.90;;;;;;5058891;28;20018;-74
2023/08/24 10:38:25;;;;;;;;;;;26.30;62.80;;;;;;5059294;28;19975;-75
2023/08/24 10:40:52;;;;;;;;;;;26.30;62.80;;;;;;5060635;28;20045;-75
2023/08/24 10:43:18;;;;;;;;;;;26.30;62.60;;;;;;5060140;28;20452;-75
2023/08/24 10:45:55;;;;;;;;;;;26.40;62.60;;;;;;5056797;28;20096;-74
2023/08/24 10:48:24;;;;;;;;;;;26.40;62.60;;;;;;5057871;28;19979;-74
2023/08/24 10:51:09;;;;;;;;;;;26.60;62.50;;;;;;5060665;28;20066;-75
2023/08/24 10:53:39;;;;;;;;;;;26.60;62.30;;;;;;5062522;28;20062;-74
2023/08/24 10:56:12;;;;;;;;;;;26.70;62.20;;;;;;5060204;28;20377;-74
2023/08/24 10:58:38;;;;;;;;;;;26.80;62.10;;;;;;5061312;28;20067;-75
2023/08/24 11:01:05;;;;;;;;;;;26.90;62.00;;;;;;5062707;28;19999;-75
2023/08/24 11:03:33;;;;;;;;;;;27.00;61.80;;;;;;5062022;28;19991;-74
2023/08/24 11:06:00;;;;;;;;;;;27.00;61.60;;;;;;5060164;28;19999;-75
2023/08/24 11:08:41;;;;;;;;;;;27.10;61.50;;;;;;5057167;28;19975;-79
2023/08/24 11:11:18;;;;;;;;;;;27.20;61.40;;;;;;5053658;28;19975;-78
2023/08/24 11:14:00;;;;;;;;;;;27.20;61.00;;;;;;5058123;28;20482;-79
2023/08/24 11:16:42;;;;;;;;;;;27.40;61.10;;;;;;5058614;28;19995;-78
2023/08/24 11:19:13;;;;;;;;;;;27.40;60.90;;;;;;5051367;28;20357;-78
2023/08/24 11:21:39;;;;;;;;;;;27.50;60.60;;;;;;5055914;28;19980;-78
2023/08/24 11:24:06;;;;;;;;;;;27.60;60.50;;;;;;5053590;28;19980;-78
2023/08/24 11:26:33;;;;;;;;;;;27.60;60.30;;;;;;5060439;28;20006;-78
2023/08/24 11:28:59;;;;;;;;;;;27.80;60.20;;;;;;5057274;28;19975;-78
2023/08/24 11:31:26;;;;;;;;;;;27.80;60.20;;;;;;5058143;28;20014;-78
2023/08/24 11:33:55;;;;;;;;;;;27.90;59.90;;;;;;5059372;28;19982;-79
2023/08/24 11:36:24;;;;;;;;;;;28.00;59.90;;;;;;5060160;28;19995;-78
2023/08/24 11:38:52;;;;;;;;;;;28.00;59.80;;;;;;5063472;28;19975;-79
2023/08/24 11:41:19;;;;;;;;;;;28.10;59.70;;;;;;5059208;28;19982;-79
2023/08/24 11:43:47;;;;;;;;;;;28.10;59.50;;;;;;5058375;28;19976;-79
2023/08/24 11:46:13;;;;;;;;;;;28.20;59.40;;;;;;5059111;28;20000;-79
2023/08/24 11:48:41;;;;;;;;;;;28.30;59.10;;;;;;5058732;28;19979;-79
2023/08/24 11:51:09;;;;;;;;;;;28.40;59.10;;;;;;5059993;28;19975;-78
2023/08/24 11:53:39;;;;;;;;;;;28.40;59.10;;;;;;5062334;28;19982;-78
2023/08/24 11:56:05;;;;;;;;;;;28.50;59.00;;;;;;5061587;28;20003;-79
2023/08/24 11:58:32;;;;;;;;;;;28.60;59.50;;;;;;5060280;28;19982;-78
2023/08/24 12:00:58;;;;;;;;;;;28.60;58.80;;;;;;5055303;28;19999;-78
2023/08/24 12:03:25;;;;;;;;;;;28.70;58.70;;;;;;5058996;28;20353;-79
2023/08/24 12:05:52;;;;;;;;;;;28.80;58.70;;;;;;5059620;28;20473;-78
2023/08/24 12:08:18;;;;;;;;;;;28.80;58.50;;;;;;5061883;28;20490;-79
2023/08/24 12:10:46;;;;;;;;;;;28.90;58.40;;;;;;5061691;28;19999;-79
2023/08/24 12:13:13;;;;;;;;;;;29.00;58.40;;;;;;5064492;28;19975;-80
2023/08/24 12:15:41;;;;;;;;;;;29.00;58.30;;;;;;5059671;28;19999;-79
2023/08/24 12:18:08;;;;;;;;;;;29.10;58.40;;;;;;5058395;28;19985;-80
2023/08/24 12:20:34;;;;;;;;;;;29.20;58.40;;;;;;5058012;28;20010;-77
2023/08/24 12:23:01;;;;;;;;;;;29.10;58.40;;;;;;5060758;28;19975;-74
2023/08/24 12:25:27;;;;;;;;;;;29.20;58.50;;;;;;5061236;28;19995;-74
2023/08/24 12:28:08;;;;;;;;;;;29.20;58.60;;;;;;5063682;28;20480;-74
2023/08/24 12:30:44;;;;;;;;;;;29.20;58.60;;;;;;5058996;28;20492;-74
2023/08/24 12:33:21;;;;;;;;;;;29.30;58.70;;;;;;5061799;28;19979;-74
2023/08/24 12:35:48;;;;;;;;;;;29.30;58.60;;;;;;5059674;28;20464;-74
2023/08/24 12:38:14;;;;;;;;;;;29.40;58.60;;;;;;5059388;28;20075;-75
2023/08/24 12:40:41;;;;;;;;;;;29.40;58.60;;;;;;5061171;28;19987;-74
2023/08/24 12:43:09;;;;;;;;;;;29.40;58.60;;;;;;5061505;28;19979;-74
2023/08/24 12:45:37;;;;;;;;;;;29.40;58.60;;;;;;5058836;28;19999;-73
2023/08/24 12:48:04;;;;;;;;;;;29.50;59.20;;;;;;5058632;28;19996;-74
2023/08/24 12:50:30;;;;;;;;;;;29.50;58.60;;;;;;5055766;28;19983;-74
2023/08/24 12:52:59;;;;;;;;;;;29.50;58.60;;;;;;5061894;28;19975;-74
2023/08/24 12:55:26;;;;;;;;;;;29.60;58.70;;;;;;5060158;28;19991;-74
2023/08/24 12:57:53;;;;;;;;;;;29.60;58.70;;;;;;5064089;28;19986;-74
2023/08/24 13:00:21;;;;;;;;;;;29.60;58.70;;;;;;5063347;28;20030;-74
2023/08/24 13:02:49;;;;;;;;;;;29.60;58.70;;;;;;5060828;28;19975;-74
2023/08/24 13:05:15;;;;;;;;;;;29.70;58.80;;;;;;5062264;28;19998;-74
2023/08/24 13:07:42;;;;;;;;;;;29.70;58.70;;;;;;5060045;28;19999;-74
2023/08/24 13:10:09;;;;;;;;;;;29.80;58.70;;;;;;5063186;28;20791;-74
2023/08/24 13:12:35;;;;;;;;;;;29.80;58.70;;;;;;5059813;28;19976;-74
2023/08/24 13:15:02;;;;;;;;;;;29.90;58.60;;;;;;5062244;28;20455;-73
2023/08/24 13:17:30;;;;;;;;;;;30.00;58.60;;;;;;5060249;28;20126;-74
2023/08/24 13:19:57;;;;;;;;;;;30.10;58.50;;;;;;5062169;28;19986;-73
2023/08/24 13:22:23;;;;;;;;;;;30.20;58.40;;;;;;5059716;28;19980;-74
2023/08/24 13:24:49;;;;;;;;;;;30.20;58.20;;;;;;5057717;28;19982;-75
2023/08/24 13:27:16;;;;;;;;;;;30.30;58.10;;;;;;5061593;28;20014;-74
2023/08/24 13:29:42;;;;;;;;;;;30.30;57.70;;;;;;5053740;28;20113;-74
2023/08/24 13:32:09;;;;;;;;;;;30.40;57.70;;;;;;5059450;28;20003;-74
2023/08/24 13:34:37;;;;;;;;;;;30.50;57.60;;;;;;5057721;28;19983;-74
2023/08/24 13:37:04;;;;;;;;;;;30.60;57.60;;;;;;5061218;28;20388;-74
2023/08/24 13:39:32;;;;;;;;;;;30.60;57.50;;;;;;5056820;28;20066;-74
2023/08/24 13:41:58;;;;;;;;;;;30.70;57.50;;;;;;5058633;28;19976;-74
2023/08/24 13:44:25;;;;;;;;;;;30.80;57.40;;;;;;5055185;28;20013;-74
2023/08/24 13:46:51;;;;;;;;;;;30.80;57.30;;;;;;5057926;28;19995;-75
2023/08/24 13:49:18;;;;;;;;;;;30.80;57.20;;;;;;5059744;28;19987;-74
2023/08/24 13:51:46;;;;;;;;;;;30.90;57.20;;;;;;5059942;28;19979;-75
2023/08/24 13:54:14;;;;;;;;;;;31.00;57.30;;;;;;5057154;28;21216;-75
2023/08/24 13:56:40;;;;;;;;;;;30.90;57.20;;;;;;5057112;28;19996;-75
2023/08/24 13:59:07;;;;;;;;;;;30.90;57.20;;;;;;5057922;28;19997;-75
2023/08/24 14:01:34;;;;;;;;;;;30.90;57.30;;;;;;5060678;28;20483;-75
2023/08/24 14:04:01;;;;;;;;;;;31.00;57.70;;;;;;5059251;28;20084;-75
2023/08/24 14:06:28;;;;;;;;;;;30.90;57.80;;;;;;5059048;28;20508;-75
2023/08/24 14:08:56;;;;;;;;;;;30.80;58.10;;;;;;5061304;28;19992;-76
2023/08/24 14:11:23;;;;;;;;;;;30.80;58.40;;;;;;5056110;28;19976;-75
2023/08/24 14:13:50;;;;;;;;;;;30.80;58.50;;;;;;5060388;28;20063;-75
2023/08/24 14:16:16;;;;;;;;;;;30.80;58.80;;;;;;5061644;28;20002;-76
2023/08/24 14:18:43;;;;;;;;;;;30.80;59.40;;;;;;5058641;28;19984;-75